sensor_id;sensor_type;location;lat;lon;timestamp;temperature;humidity
1702;DHT22;848;48.354;10.064;2023-04-25T00:01:47;9.10;99.90
1702;DHT22;848;48.354;10.064;2023-04-25T00:04:14;9.10;99.90
1702;DHT22;848;48.354;10.064;2023-04-25T00:06:41;9.10;99.90
1702;DHT22;848;48.354;10.064;2023-04-25T00:09:09;9.10;99.90
1702;DHT22;848;48.354;10.064;2023-04-25T00:11:37;9.20;99.90
1702;DHT22;848;48.354;10.064;2023-04-25T00:14:04;9.20;99.90
1702;DHT22;848;48.354;10.064;2023-04-25T00:16:32;9.20;99.90
1702;DHT22;848;48.354;10.064;2023-04-25T00:19:00;9.20;99.90
1702;DHT22;848;48.354;10.064;2023-04-25T00:21:27;9.10;99.90
1702;DHT22;848;48.354;10.064;2023-04-25T00:23:55;9.20;99.90
1702;DHT22;848;48.354;10.064;2023-04-25T00:26:24;9.10;99.90
1702;DHT22;848;48.354;10.064;2023-04-25T00:28:51;9.10;99.90
1702;DHT22;848;48.354;10.064;2023-04-25T00:31:18;9.20;99.90
1702;DHT22;848;48.354;10.064;2023-04-25T00:33:45;9.10;99.90
1702;DHT22;848;48.354;10.064;2023-04-25T00:36:12;9.10;99.90
1702;DHT22;848;48.354;10.064;2023-04-25T00:38:39;9.10;99.90
1702;DHT22;848;48.354;10.064;2023-04-25T00:41:07;9.10;99.90
1702;DHT22;848;48.354;10.064;2023-04-25T00:43:36;9.00;99.90
1702;DHT22;848;48.354;10.064;2023-04-25T00:46:03;9.00;99.90
1702;DHT22;848;48.354;10.064;2023-04-25T00:48:30;8.90;99.90
1702;DHT22;848;48.354;10.064;2023-04-25T00:50:58;8.90;99.90
1702;DHT22;848;48.354;10.064;2023-04-25T00:53:27;8.90;99.90
1702;DHT22;848;48.354;10.064;2023-04-25T00:55:55;8.80;99.90
1702;DHT22;848;48.354;10.064;2023-04-25T00:58:22;8.80;99.90
1702;DHT22;848;48.354;10.064;2023-04-25T01:00:52;8.90;99.90
1702;DHT22;848;48.354;10.064;2023-04-25T01:03:19;8.80;99.90
1702;DHT22;848;48.354;10.064;2023-04-25T01:05:46;8.80;99.90
1702;DHT22;848;48.354;10.064;2023-04-25T01:08:13;8.90;99.90
1702;DHT22;848;48.354;10.064;2023-04-25T01:10:40;8.80;99.90
1702;DHT22;848;48.354;10.064;2023-04-25T01:13:07;8.80;99.90
1702;DHT22;848;48.354;10.064;2023-04-25T01:15:34;8.80;99.90
1702;DHT22;848;48.354;10.064;2023-04-25T01:18:04;8.80;99.90
1702;DHT22;848;48.354;10.064;2023-04-25T01:20:32;8.80;99.90
1702;DHT22;848;48.354;10.064;2023-04-25T01:23:01;8.80;99.90
1702;DHT22;848;48.354;10.064;2023-04-25T01:25:29;8.70;99.90
1702;DHT22;848;48.354;10.064;2023-04-25T01:27:57;8.70;99.90
1702;DHT22;848;48.354;10.064;2023-04-25T01:30:25;8.80;99.90
1702;DHT22;848;48.354;10.064;2023-04-25T01:32:54;8.80;99.90
1702;DHT22;848;48.354;10.064;2023-04-25T01:35:22;8.80;99.90
1702;DHT22;848;48.354;10.064;2023-04-25T01:37:49;8.80;99.90
1702;DHT22;848;48.354;10.064;2023-04-25T01:40:21;8.80;99.90
1702;DHT22;848;48.354;10.064;2023-04-25T01:42:48;8.80;99.90
1702;DHT22;848;48.354;10.064;2023-04-25T01:45:15;8.90;99.90
1702;DHT22;848;48.354;10.064;2023-04-25T01:47:46;8.80;99.90
1702;DHT22;848;48.354;10.064;2023-04-25T01:50:15;8.80;99.90
1702;DHT22;848;48.354;10.064;2023-04-25T01:52:42;8.90;99.90
1702;DHT22;848;48.354;10.064;2023-04-25T01:55:10;8.90;99.90
1702;DHT22;848;48.354;10.064;2023-04-25T01:57:38;8.90;99.90
1702;DHT22;848;48.354;10.064;2023-04-25T02:00:06;8.90;99.90
1702;DHT22;848;48.354;10.064;2023-04-25T02:02:34;8.80;99.90
1702;DHT22;848;48.354;10.064;2023-04-25T02:05:01;8.80;99.90
1702;DHT22;848;48.354;10.064;2023-04-25T02:07:28;8.80;99.90
1702;DHT22;848;48.354;10.064;2023-04-25T02:09:55;8.80;99.90
1702;DHT22;848;48.354;10.064;2023-04-25T02:12:21;8.80;99.90
1702;DHT22;848;48.354;10.064;2023-04-25T02:14:50;8.80;99.90
1702;DHT22;848;48.354;10.064;2023-04-25T02:17:17;8.80;99.90
1702;DHT22;848;48.354;10.064;2023-04-25T02:19:43;8.90;99.90
1702;DHT22;848;48.354;10.064;2023-04-25T02:22:11;9.00;99.90
1702;DHT22;848;48.354;10.064;2023-04-25T02:24:38;8.90;99.90
1702;DHT22;848;48.354;10.064;2023-04-25T02:27:04;8.90;99.90
1702;DHT22;848;48.354;10.064;2023-04-25T02:29:31;8.90;99.90
1702;DHT22;848;48.354;10.064;2023-04-25T02:31:59;8.90;99.90
1702;DHT22;848;48.354;10.064;2023-04-25T02:34:26;8.90;99.90
1702;DHT22;848;48.354;10.064;2023-04-25T02:36:53;8.80;99.90
1702;DHT22;848;48.354;10.064;2023-04-25T02:39:20;8.70;99.90
1702;DHT22;848;48.354;10.064;2023-04-25T02:41:47;8.70;99.90
1702;DHT22;848;48.354;10.064;2023-04-25T02:44:18;8.70;99.90
1702;DHT22;848;48.354;10.064;2023-04-25T02:46:45;8.50;99.90
1702;DHT22;848;48.354;10.064;2023-04-25T02:49:13;8.50;99.90
1702;DHT22;848;48.354;10.064;2023-04-25T02:51:40;8.50;99.90
1702;DHT22;848;48.354;10.064;2023-04-25T02:54:07;8.50;99.90
1702;DHT22;848;48.354;10.064;2023-04-25T02:56:34;8.60;99.90
1702;DHT22;848;48.354;10.064;2023-04-25T02:59:01;8.60;99.90
1702;DHT22;848;48.354;10.064;2023-04-25T03:01:31;8.60;99.90
1702;DHT22;848;48.354;10.064;2023-04-25T03:03:58;8.50;99.90
1702;DHT22;848;48.354;10.064;2023-04-25T03:06:26;8.50;99.90
1702;DHT22;848;48.354;10.064;2023-04-25T03:08:53;8.50;99.90
1702;DHT22;848;48.354;10.064;2023-04-25T03:11:20;8.50;99.90
1702;DHT22;848;48.354;10.064;2023-04-25T03:13:47;8.60;99.90
1702;DHT22;848;48.354;10.064;2023-04-25T03:16:14;8.60;99.90
1702;DHT22;848;48.354;10.064;2023-04-25T03:18:41;8.50;99.90
1702;DHT22;848;48.354;10.064;2023-04-25T03:21:10;8.50;99.90
1702;DHT22;848;48.354;10.064;2023-04-25T03:23:38;8.50;99.90
1702;DHT22;848;48.354;10.064;2023-04-25T03:26:05;8.60;99.90
1702;DHT22;848;48.354;10.064;2023-04-25T03:28:32;8.60;99.90
1702;DHT22;848;48.354;10.064;2023-04-25T03:30:59;8.50;99.90
1702;DHT22;848;48.354;10.064;2023-04-25T03:33:26;8.50;99.90
1702;DHT22;848;48.354;10.064;2023-04-25T03:35:55;8.40;99.90
1702;DHT22;848;48.354;10.064;2023-04-25T03:38:21;8.40;99.90
1702;DHT22;848;48.354;10.064;2023-04-25T03:40:50;8.50;99.90
1702;DHT22;848;48.354;10.064;2023-04-25T03:43:17;8.40;99.90
1702;DHT22;848;48.354;10.064;2023-04-25T03:45:44;8.40;99.90
1702;DHT22;848;48.354;10.064;2023-04-25T03:48:11;8.30;99.90
1702;DHT22;848;48.354;10.064;2023-04-25T03:50:38;8.40;99.90
1702;DHT22;848;48.354;10.064;2023-04-25T03:53:05;8.40;99.90
1702;DHT22;848;48.354;10.064;2023-04-25T03:55:32;8.40;99.90
1702;DHT22;848;48.354;10.064;2023-04-25T03:58:00;8.40;99.90
1702;DHT22;848;48.354;10.064;2023-04-25T04:00:27;8.40;99.90
1702;DHT22;848;48.354;10.064;2023-04-25T04:02:54;8.40;99.90
1702;DHT22;848;48.354;10.064;2023-04-25T04:05:22;8.40;99.90
1702;DHT22;848;48.354;10.064;2023-04-25T04:07:49;8.40;99.90
1702;DHT22;848;48.354;10.064;2023-04-25T04:10:16;8.40;99.90
1702;DHT22;848;48.354;10.064;2023-04-25T04:12:43;8.40;99.90
1702;DHT22;848;48.354;10.064;2023-04-25T04:15:11;8.40;99.90
1702;DHT22;848;48.354;10.064;2023-04-25T04:17:38;8.40;99.90
1702;DHT22;848;48.354;10.064;2023-04-25T04:20:06;8.40;99.90
1702;DHT22;848;48.354;10.064;2023-04-25T04:22:34;8.40;99.90
1702;DHT22;848;48.354;10.064;2023-04-25T04:25:06;8.30;99.90
1702;DHT22;848;48.354;10.064;2023-04-25T04:27:33;8.30;99.90
1702;DHT22;848;48.354;10.064;2023-04-25T04:30:04;8.30;99.90
1702;DHT22;848;48.354;10.064;2023-04-25T04:32:32;8.30;99.90
1702;DHT22;848;48.354;10.064;2023-04-25T04:35:00;8.30;99.90
1702;DHT22;848;48.354;10.064;2023-04-25T04:37:27;8.30;99.90
1702;DHT22;848;48.354;10.064;2023-04-25T04:39:54;8.30;99.90
1702;DHT22;848;48.354;10.064;2023-04-25T04:42:21;8.30;99.90
1702;DHT22;848;48.354;10.064;2023-04-25T04:44:54;8.30;99.90
1702;DHT22;848;48.354;10.064;2023-04-25T04:47:21;8.30;99.90
1702;DHT22;848;48.354;10.064;2023-04-25T04:49:50;8.30;99.90
1702;DHT22;848;48.354;10.064;2023-04-25T04:52:17;8.30;99.90
1702;DHT22;848;48.354;10.064;2023-04-25T04:54:44;8.30;99.90
1702;DHT22;848;48.354;10.064;2023-04-25T04:57:11;8.30;99.90
1702;DHT22;848;48.354;10.064;2023-04-25T04:59:38;8.40;99.90
1702;DHT22;848;48.354;10.064;2023-04-25T05:02:04;8.40;99.90
1702;DHT22;848;48.354;10.064;2023-04-25T05:04:31;8.40;99.90
1702;DHT22;848;48.354;10.064;2023-04-25T05:07:00;8.50;99.90
1702;DHT22;848;48.354;10.064;2023-04-25T05:09:27;8.50;99.90
1702;DHT22;848;48.354;10.064;2023-04-25T05:11:53;8.60;99.90
1702;DHT22;848;48.354;10.064;2023-04-25T05:14:20;8.60;99.90
1702;DHT22;848;48.354;10.064;2023-04-25T05:16:48;8.60;99.90
1702;DHT22;848;48.354;10.064;2023-04-25T05:19:16;8.60;99.90
1702;DHT22;848;48.354;10.064;2023-04-25T05:21:43;8.60;99.90
1702;DHT22;848;48.354;10.064;2023-04-25T05:24:11;8.50;99.90
1702;DHT22;848;48.354;10.064;2023-04-25T05:26:38;8.50;99.90
1702;DHT22;848;48.354;10.064;2023-04-25T05:29:07;8.40;99.90
1702;DHT22;848;48.354;10.064;2023-04-25T05:31:33;8.50;99.90
1702;DHT22;848;48.354;10.064;2023-04-25T05:34:00;8.50;99.90
1702;DHT22;848;48.354;10.064;2023-04-25T05:36:29;8.50;99.90
1702;DHT22;848;48.354;10.064;2023-04-25T05:38:58;8.60;99.90
1702;DHT22;848;48.354;10.064;2023-04-25T05:41:26;8.60;99.90
1702;DHT22;848;48.354;10.064;2023-04-25T05:43:53;8.70;99.90
1702;DHT22;848;48.354;10.064;2023-04-25T05:46:20;8.80;99.90
1702;DHT22;848;48.354;10.064;2023-04-25T05:48:46;8.90;99.90
1702;DHT22;848;48.354;10.064;2023-04-25T05:51:13;8.90;99.90
1702;DHT22;848;48.354;10.064;2023-04-25T05:53:40;9.00;99.90
1702;DHT22;848;48.354;10.064;2023-04-25T05:56:08;9.00;99.90
1702;DHT22;848;48.354;10.064;2023-04-25T05:58:36;8.90;99.90
1702;DHT22;848;48.354;10.064;2023-04-25T06:01:03;8.90;99.90
1702;DHT22;848;48.354;10.064;2023-04-25T06:03:30;8.90;99.90
1702;DHT22;848;48.354;10.064;2023-04-25T06:05:57;8.90;99.90
1702;DHT22;848;48.354;10.064;2023-04-25T06:08:24;9.00;99.90
1702;DHT22;848;48.354;10.064;2023-04-25T06:10:51;9.10;99.90
1702;DHT22;848;48.354;10.064;2023-04-25T06:13:18;9.40;99.90
1702;DHT22;848;48.354;10.064;2023-04-25T06:15:46;9.40;99.90
1702;DHT22;848;48.354;10.064;2023-04-25T06:18:15;9.70;99.90
1702;DHT22;848;48.354;10.064;2023-04-25T06:20:41;9.80;99.90
1702;DHT22;848;48.354;10.064;2023-04-25T06:23:08;10.30;99.90
1702;DHT22;848;48.354;10.064;2023-04-25T06:25:38;11.30;99.90
1702;DHT22;848;48.354;10.064;2023-04-25T06:28:04;12.00;99.90
1702;DHT22;848;48.354;10.064;2023-04-25T06:30:31;12.30;99.90
1702;DHT22;848;48.354;10.064;2023-04-25T06:33:00;12.20;99.90
1702;DHT22;848;48.354;10.064;2023-04-25T06:35:28;11.80;99.90
1702;DHT22;848;48.354;10.064;2023-04-25T06:37:55;11.70;99.90
1702;DHT22;848;48.354;10.064;2023-04-25T06:40:22;12.20;99.90
1702;DHT22;848;48.354;10.064;2023-04-25T06:42:49;13.70;99.90
1702;DHT22;848;48.354;10.064;2023-04-25T06:45:16;14.70;99.90
1702;DHT22;848;48.354;10.064;2023-04-25T06:47:43;14.80;99.90
1702;DHT22;848;48.354;10.064;2023-04-25T06:50:11;14.70;99.90
1702;DHT22;848;48.354;10.064;2023-04-25T06:52:38;15.00;99.90
1702;DHT22;848;48.354;10.064;2023-04-25T06:55:05;14.50;99.90
1702;DHT22;848;48.354;10.064;2023-04-25T06:57:32;15.10;99.90
1702;DHT22;848;48.354;10.064;2023-04-25T06:59:59;16.10;99.90
1702;DHT22;848;48.354;10.064;2023-04-25T07:02:26;16.20;99.90
1702;DHT22;848;48.354;10.064;2023-04-25T07:04:53;17.20;99.90
1702;DHT22;848;48.354;10.064;2023-04-25T07:07:23;17.60;99.90
1702;DHT22;848;48.354;10.064;2023-04-25T07:09:49;17.80;99.90
1702;DHT22;848;48.354;10.064;2023-04-25T07:12:16;17.40;99.90
1702;DHT22;848;48.354;10.064;2023-04-25T07:14:43;16.50;99.90
1702;DHT22;848;48.354;10.064;2023-04-25T07:17:10;16.60;99.90
1702;DHT22;848;48.354;10.064;2023-04-25T07:19:37;16.50;99.90
1702;DHT22;848;48.354;10.064;2023-04-25T07:22:05;17.10;99.90
1702;DHT22;848;48.354;10.064;2023-04-25T07:24:33;16.90;99.90
1702;DHT22;848;48.354;10.064;2023-04-25T07:27:00;16.20;99.90
1702;DHT22;848;48.354;10.064;2023-04-25T07:29:28;15.10;99.90
1702;DHT22;848;48.354;10.064;2023-04-25T07:31:55;13.80;99.90
1702;DHT22;848;48.354;10.064;2023-04-25T07:34:22;13.00;99.90
1702;DHT22;848;48.354;10.064;2023-04-25T07:36:49;12.60;99.90
1702;DHT22;848;48.354;10.064;2023-04-25T07:39:16;12.40;99.90
1702;DHT22;848;48.354;10.064;2023-04-25T07:41:44;12.10;99.90
1702;DHT22;848;48.354;10.064;2023-04-25T07:44:11;12.00;99.90
1702;DHT22;848;48.354;10.064;2023-04-25T07:46:38;12.00;99.90
1702;DHT22;848;48.354;10.064;2023-04-25T07:49:05;11.90;99.90
1702;DHT22;848;48.354;10.064;2023-04-25T07:51:31;11.60;99.90
1702;DHT22;848;48.354;10.064;2023-04-25T07:53:58;11.40;99.90
1702;DHT22;848;48.354;10.064;2023-04-25T07:56:26;11.20;99.90
1702;DHT22;848;48.354;10.064;2023-04-25T07:58:54;11.10;99.90
1702;DHT22;848;48.354;10.064;2023-04-25T08:01:21;11.20;99.90
1702;DHT22;848;48.354;10.064;2023-04-25T08:03:48;11.10;99.90
1702;DHT22;848;48.354;10.064;2023-04-25T08:06:15;11.20;99.90
1702;DHT22;848;48.354;10.064;2023-04-25T08:08:42;11.10;99.90
1702;DHT22;848;48.354;10.064;2023-04-25T08:11:09;11.10;99.90
1702;DHT22;848;48.354;10.064;2023-04-25T08:13:36;11.10;99.90
1702;DHT22;848;48.354;10.064;2023-04-25T08:16:04;11.10;99.90
1702;DHT22;848;48.354;10.064;2023-04-25T08:18:31;11.10;99.90
1702;DHT22;848;48.354;10.064;2023-04-25T08:20:58;11.10;99.90
1702;DHT22;848;48.354;10.064;2023-04-25T08:23:25;11.30;99.90
1702;DHT22;848;48.354;10.064;2023-04-25T08:25:52;11.40;99.90
1702;DHT22;848;48.354;10.064;2023-04-25T08:28:18;11.50;99.90
1702;DHT22;848;48.354;10.064;2023-04-25T08:30:45;11.50;99.90
1702;DHT22;848;48.354;10.064;2023-04-25T08:33:14;11.40;99.90
1702;DHT22;848;48.354;10.064;2023-04-25T08:35:41;11.30;99.90
1702;DHT22;848;48.354;10.064;2023-04-25T08:38:07;11.30;99.90
1702;DHT22;848;48.354;10.064;2023-04-25T08:40:38;11.40;99.90
1702;DHT22;848;48.354;10.064;2023-04-25T08:43:06;11.50;99.90
1702;DHT22;848;48.354;10.064;2023-04-25T08:45:38;11.50;99.90
1702;DHT22;848;48.354;10.064;2023-04-25T08:48:08;11.60;99.90
1702;DHT22;848;48.354;10.064;2023-04-25T08:50:39;11.70;99.90
1702;DHT22;848;48.354;10.064;2023-04-25T08:53:09;11.70;99.90
1702;DHT22;848;48.354;10.064;2023-04-25T08:55:40;11.70;99.90
1702;DHT22;848;48.354;10.064;2023-04-25T08:58:09;12.00;99.90
1702;DHT22;848;48.354;10.064;2023-04-25T09:00:37;11.80;99.90
1702;DHT22;848;48.354;10.064;2023-04-25T09:03:05;11.80;99.90
1702;DHT22;848;48.354;10.064;2023-04-25T09:05:32;11.80;99.90
1702;DHT22;848;48.354;10.064;2023-04-25T09:08:01;11.90;99.90
1702;DHT22;848;48.354;10.064;2023-04-25T09:10:28;11.90;99.90
1702;DHT22;848;48.354;10.064;2023-04-25T09:13:06;11.80;99.90
1702;DHT22;848;48.354;10.064;2023-04-25T09:15:47;11.80;99.90
1702;DHT22;848;48.354;10.064;2023-04-25T09:18:16;11.80;99.90
1702;DHT22;848;48.354;10.064;2023-04-25T09:20:48;11.90;99.90
1702;DHT22;848;48.354;10.064;2023-04-25T09:23:16;11.90;99.90
1702;DHT22;848;48.354;10.064;2023-04-25T09:25:47;12.00;99.90
1702;DHT22;848;48.354;10.064;2023-04-25T09:28:14;11.80;99.90
1702;DHT22;848;48.354;10.064;2023-04-25T09:30:41;11.80;99.90
1702;DHT22;848;48.354;10.064;2023-04-25T09:33:10;11.90;99.90
1702;DHT22;848;48.354;10.064;2023-04-25T09:35:37;12.10;99.90
1702;DHT22;848;48.354;10.064;2023-04-25T09:38:09;12.20;99.90
1702;DHT22;848;48.354;10.064;2023-04-25T09:40:41;12.30;99.90
1702;DHT22;848;48.354;10.064;2023-04-25T09:43:18;12.30;99.90
1702;DHT22;848;48.354;10.064;2023-04-25T09:45:46;12.20;99.90
1702;DHT22;848;48.354;10.064;2023-04-25T09:48:17;12.20;99.90
1702;DHT22;848;48.354;10.064;2023-04-25T09:50:45;12.20;99.90
1702;DHT22;848;48.354;10.064;2023-04-25T09:53:12;12.10;99.90
1702;DHT22;848;48.354;10.064;2023-04-25T09:55:42;12.00;99.90
1702;DHT22;848;48.354;10.064;2023-04-25T09:58:11;11.90;99.90
1702;DHT22;848;48.354;10.064;2023-04-25T10:00:40;11.80;99.90
1702;DHT22;848;48.354;10.064;2023-04-25T10:03:08;11.80;99.90
1702;DHT22;848;48.354;10.064;2023-04-25T10:05:35;11.40;99.90
1702;DHT22;848;48.354;10.064;2023-04-25T10:08:04;10.40;99.90
1702;DHT22;848;48.354;10.064;2023-04-25T10:10:32;9.60;99.90
1702;DHT22;848;48.354;10.064;2023-04-25T10:13:04;9.30;99.90
1702;DHT22;848;48.354;10.064;2023-04-25T10:15:34;9.10;99.90
1702;DHT22;848;48.354;10.064;2023-04-25T10:18:02;9.00;99.90
1702;DHT22;848;48.354;10.064;2023-04-25T10:20:30;8.80;99.90
1702;DHT22;848;48.354;10.064;2023-04-25T10:23:06;8.70;99.90
1702;DHT22;848;48.354;10.064;2023-04-25T10:25:34;8.40;99.90
1702;DHT22;848;48.354;10.064;2023-04-25T10:28:04;8.30;99.90
1702;DHT22;848;48.354;10.064;2023-04-25T10:30:32;8.20;99.90
1702;DHT22;848;48.354;10.064;2023-04-25T10:33:00;8.30;99.90
1702;DHT22;848;48.354;10.064;2023-04-25T10:35:28;8.40;99.90
1702;DHT22;848;48.354;10.064;2023-04-25T10:38:04;8.50;99.90
1702;DHT22;848;48.354;10.064;2023-04-25T10:40:31;8.60;99.90
1702;DHT22;848;48.354;10.064;2023-04-25T10:43:36;8.80;99.90
1702;DHT22;848;48.354;10.064;2023-04-25T10:46:13;8.70;99.90
1702;DHT22;848;48.354;10.064;2023-04-25T10:48:45;8.70;99.90
1702;DHT22;848;48.354;10.064;2023-04-25T10:51:17;8.60;99.90
1702;DHT22;848;48.354;10.064;2023-04-25T10:53:45;8.60;99.90
1702;DHT22;848;48.354;10.064;2023-04-25T10:56:16;8.70;99.90
1702;DHT22;848;48.354;10.064;2023-04-25T10:58:45;8.70;99.90
1702;DHT22;848;48.354;10.064;2023-04-25T11:01:13;8.60;99.90
1702;DHT22;848;48.354;10.064;2023-04-25T11:03:41;8.40;99.90
1702;DHT22;848;48.354;10.064;2023-04-25T11:06:20;8.40;99.90
1702;DHT22;848;48.354;10.064;2023-04-25T11:08:50;8.30;99.90
1702;DHT22;848;48.354;10.064;2023-04-25T11:11:18;8.40;99.90
1702;DHT22;848;48.354;10.064;2023-04-25T11:13:49;8.30;99.90
1702;DHT22;848;48.354;10.064;2023-04-25T11:16:16;8.20;99.90
1702;DHT22;848;48.354;10.064;2023-04-25T11:18:43;8.30;99.90
1702;DHT22;848;48.354;10.064;2023-04-25T11:21:11;8.30;99.90
1702;DHT22;848;48.354;10.064;2023-04-25T11:23:38;8.40;99.90
1702;DHT22;848;48.354;10.064;2023-04-25T11:26:04;8.50;99.90
1702;DHT22;848;48.354;10.064;2023-04-25T11:28:31;8.50;99.90
1702;DHT22;848;48.354;10.064;2023-04-25T11:30:59;8.70;99.90
1702;DHT22;848;48.354;10.064;2023-04-25T11:33:26;8.80;99.90
1702;DHT22;848;48.354;10.064;2023-04-25T11:35:54;9.00;99.90
1702;DHT22;848;48.354;10.064;2023-04-25T11:38:22;9.10;99.90
1702;DHT22;848;48.354;10.064;2023-04-25T11:40:53;9.30;99.90
1702;DHT22;848;48.354;10.064;2023-04-25T11:43:20;9.40;99.90
1702;DHT22;848;48.354;10.064;2023-04-25T11:45:48;9.30;99.90
1702;DHT22;848;48.354;10.064;2023-04-25T11:48:17;9.30;99.90
1702;DHT22;848;48.354;10.064;2023-04-25T11:50:44;9.40;99.90
1702;DHT22;848;48.354;10.064;2023-04-25T11:53:11;9.50;99.90
1702;DHT22;848;48.354;10.064;2023-04-25T11:55:38;9.50;99.90
1702;DHT22;848;48.354;10.064;2023-04-25T11:58:05;9.50;99.90
1702;DHT22;848;48.354;10.064;2023-04-25T12:00:34;9.40;99.90
1702;DHT22;848;48.354;10.064;2023-04-25T12:03:01;9.50;99.90
1702;DHT22;848;48.354;10.064;2023-04-25T12:05:30;9.40;99.90
1702;DHT22;848;48.354;10.064;2023-04-25T12:08:09;9.40;99.90
1702;DHT22;848;48.354;10.064;2023-04-25T12:10:37;9.20;99.90
1702;DHT22;848;48.354;10.064;2023-04-25T12:13:19;9.00;99.90
1702;DHT22;848;48.354;10.064;2023-04-25T12:15:46;9.20;99.90
1702;DHT22;848;48.354;10.064;2023-04-25T12:18:13;9.10;99.90
1702;DHT22;848;48.354;10.064;2023-04-25T12:20:41;9.10;99.90
1702;DHT22;848;48.354;10.064;2023-04-25T12:23:09;9.10;99.90
1702;DHT22;848;48.354;10.064;2023-04-25T12:25:38;9.00;99.90
1702;DHT22;848;48.354;10.064;2023-04-25T12:28:16;9.10;99.90
1702;DHT22;848;48.354;10.064;2023-04-25T12:30:55;9.00;99.90
1702;DHT22;848;48.354;10.064;2023-04-25T12:33:21;9.00;99.90
1702;DHT22;848;48.354;10.064;2023-04-25T12:35:50;9.00;99.90
1702;DHT22;848;48.354;10.064;2023-04-25T12:38:27;9.10;99.90
1702;DHT22;848;48.354;10.064;2023-04-25T12:40:54;9.20;99.90
1702;DHT22;848;48.354;10.064;2023-04-25T12:43:21;9.20;99.90
1702;DHT22;848;48.354;10.064;2023-04-25T12:45:49;9.20;99.90
1702;DHT22;848;48.354;10.064;2023-04-25T12:48:16;8.80;99.90
1702;DHT22;848;48.354;10.064;2023-04-25T12:50:43;8.60;99.90
1702;DHT22;848;48.354;10.064;2023-04-25T12:53:11;8.60;99.90
1702;DHT22;848;48.354;10.064;2023-04-25T12:55:38;8.70;99.90
1702;DHT22;848;48.354;10.064;2023-04-25T12:58:05;8.60;99.90
1702;DHT22;848;48.354;10.064;2023-04-25T13:00:33;8.50;99.90
1702;DHT22;848;48.354;10.064;2023-04-25T13:02:59;8.30;99.90
1702;DHT22;848;48.354;10.064;2023-04-25T13:05:27;8.30;99.90
1702;DHT22;848;48.354;10.064;2023-04-25T13:07:55;8.40;99.90
1702;DHT22;848;48.354;10.064;2023-04-25T13:10:24;8.60;99.90
1702;DHT22;848;48.354;10.064;2023-04-25T13:12:51;8.70;99.90
1702;DHT22;848;48.354;10.064;2023-04-25T13:15:18;8.70;99.90
1702;DHT22;848;48.354;10.064;2023-04-25T13:17:45;8.50;99.90
1702;DHT22;848;48.354;10.064;2023-04-25T13:20:12;8.50;99.90
1702;DHT22;848;48.354;10.064;2023-04-25T13:22:40;8.50;99.90
1702;DHT22;848;48.354;10.064;2023-04-25T13:25:08;8.50;99.90
1702;DHT22;848;48.354;10.064;2023-04-25T13:27:36;8.50;99.90
1702;DHT22;848;48.354;10.064;2023-04-25T13:30:06;8.60;99.90
1702;DHT22;848;48.354;10.064;2023-04-25T13:32:33;8.60;99.90
1702;DHT22;848;48.354;10.064;2023-04-25T13:35:02;8.60;99.90
1702;DHT22;848;48.354;10.064;2023-04-25T13:37:29;8.30;99.90
1702;DHT22;848;48.354;10.064;2023-04-25T13:39:59;8.40;99.90
1702;DHT22;848;48.354;10.064;2023-04-25T13:42:26;8.60;99.90
1702;DHT22;848;48.354;10.064;2023-04-25T13:44:54;8.90;99.90
1702;DHT22;848;48.354;10.064;2023-04-25T13:47:21;9.00;99.90
1702;DHT22;848;48.354;10.064;2023-04-25T13:49:48;9.00;99.90
1702;DHT22;848;48.354;10.064;2023-04-25T13:52:15;9.00;99.90
1702;DHT22;848;48.354;10.064;2023-04-25T13:54:42;9.00;99.90
1702;DHT22;848;48.354;10.064;2023-04-25T13:57:09;9.10;99.90
1702;DHT22;848;48.354;10.064;2023-04-25T13:59:37;9.10;99.90
1702;DHT22;848;48.354;10.064;2023-04-25T14:02:05;9.10;99.90
1702;DHT22;848;48.354;10.064;2023-04-25T14:04:32;8.70;99.90
1702;DHT22;848;48.354;10.064;2023-04-25T14:06:59;8.90;99.90
1702;DHT22;848;48.354;10.064;2023-04-25T14:09:26;9.30;99.90
1702;DHT22;848;48.354;10.064;2023-04-25T14:11:53;9.20;99.90
1702;DHT22;848;48.354;10.064;2023-04-25T14:14:20;9.50;99.90
1702;DHT22;848;48.354;10.064;2023-04-25T14:16:48;9.80;99.90
1702;DHT22;848;48.354;10.064;2023-04-25T14:19:17;9.70;99.90
1702;DHT22;848;48.354;10.064;2023-04-25T14:21:44;9.70;99.90
1702;DHT22;848;48.354;10.064;2023-04-25T14:24:12;9.70;99.90
1702;DHT22;848;48.354;10.064;2023-04-25T14:26:40;9.60;99.90
1702;DHT22;848;48.354;10.064;2023-04-25T14:29:08;9.60;99.90
1702;DHT22;848;48.354;10.064;2023-04-25T14:31:37;9.70;99.90
1702;DHT22;848;48.354;10.064;2023-04-25T14:34:05;9.90;99.90
1702;DHT22;848;48.354;10.064;2023-04-25T14:36:34;10.30;99.90
1702;DHT22;848;48.354;10.064;2023-04-25T14:39:02;10.60;99.90
1702;DHT22;848;48.354;10.064;2023-04-25T14:41:30;10.60;99.90
1702;DHT22;848;48.354;10.064;2023-04-25T14:43:57;10.50;99.90
1702;DHT22;848;48.354;10.064;2023-04-25T14:46:24;10.50;99.90
1702;DHT22;848;48.354;10.064;2023-04-25T14:48:51;10.40;99.90
1702;DHT22;848;48.354;10.064;2023-04-25T14:51:18;10.50;99.90
1702;DHT22;848;48.354;10.064;2023-04-25T14:53:46;10.40;99.90
1702;DHT22;848;48.354;10.064;2023-04-25T14:56:13;10.60;99.90
1702;DHT22;848;48.354;10.064;2023-04-25T14:58:40;10.50;99.90
1702;DHT22;848;48.354;10.064;2023-04-25T15:01:07;10.50;99.90
1702;DHT22;848;48.354;10.064;2023-04-25T15:03:34;10.70;99.90
1702;DHT22;848;48.354;10.064;2023-04-25T15:06:01;10.70;99.90
1702;DHT22;848;48.354;10.064;2023-04-25T15:08:28;10.80;99.90
1702;DHT22;848;48.354;10.064;2023-04-25T15:10:56;10.80;99.90
1702;DHT22;848;48.354;10.064;2023-04-25T15:13:24;10.50;99.90
1702;DHT22;848;48.354;10.064;2023-04-25T15:15:51;10.60;99.90
1702;DHT22;848;48.354;10.064;2023-04-25T15:18:20;10.60;99.90
1702;DHT22;848;48.354;10.064;2023-04-25T15:20:48;10.70;99.90
1702;DHT22;848;48.354;10.064;2023-04-25T15:23:15;10.80;99.90
1702;DHT22;848;48.354;10.064;2023-04-25T15:25:42;10.70;99.90
1702;DHT22;848;48.354;10.064;2023-04-25T15:28:10;10.70;99.90
1702;DHT22;848;48.354;10.064;2023-04-25T15:30:39;10.70;99.90
1702;DHT22;848;48.354;10.064;2023-04-25T15:33:06;10.80;99.90
1702;DHT22;848;48.354;10.064;2023-04-25T15:35:33;10.90;99.90
1702;DHT22;848;48.354;10.064;2023-04-25T15:38:00;10.90;99.90
1702;DHT22;848;48.354;10.064;2023-04-25T15:40:27;10.80;99.90
1702;DHT22;848;48.354;10.064;2023-04-25T15:42:53;10.70;99.90
1702;DHT22;848;48.354;10.064;2023-04-25T15:45:23;10.50;99.90
1702;DHT22;848;48.354;10.064;2023-04-25T15:47:51;10.50;99.90
1702;DHT22;848;48.354;10.064;2023-04-25T15:50:19;10.60;99.90
1702;DHT22;848;48.354;10.064;2023-04-25T15:52:47;10.80;99.90
1702;DHT22;848;48.354;10.064;2023-04-25T15:55:15;10.80;99.90
1702;DHT22;848;48.354;10.064;2023-04-25T15:57:42;10.60;99.90
1702;DHT22;848;48.354;10.064;2023-04-25T16:00:10;10.50;99.90
1702;DHT22;848;48.354;10.064;2023-04-25T16:02:39;10.60;99.90
1702;DHT22;848;48.354;10.064;2023-04-25T16:05:08;10.70;99.90
1702;DHT22;848;48.354;10.064;2023-04-25T16:07:35;10.80;99.90
1702;DHT22;848;48.354;10.064;2023-04-25T16:10:02;10.60;99.90
1702;DHT22;848;48.354;10.064;2023-04-25T16:12:29;10.50;99.90
1702;DHT22;848;48.354;10.064;2023-04-25T16:14:56;10.50;99.90
1702;DHT22;848;48.354;10.064;2023-04-25T16:17:23;10.50;99.90